Time;durP1;ratioP1;P1;durP2;ratioP2;P2;SDS_P1;SDS_P2;PMS_P1;PMS_P2;Temp;Humidity;BMP_temperature;BMP_pressure;BME280_temperature;BME280_humidity;BME280_pressure;Samples;Min_cycle;Max_cycle;Signal;HPM_P1;HPM_P2
2023/07/20 00:02:34;;;;;;;3.97;2.50;;;;;;;20.32;61.03;156588.25;4923762;29;20432;-82
2023/07/20 00:05:24;;;;;;;4.13;2.47;;;;;;;20.28;60.77;156577.78;4895140;29;20495;-82
2023/07/20 00:08:09;;;;;;;3.03;2.30;;;;;;;20.24;61.54;156566.06;4905569;29;21003;-82
2023/07/20 00:10:55;;;;;;;2.73;2.10;;;;;;;20.20;60.84;156556.84;4906610;29;20955;-82
2023/07/20 00:13:40;;;;;;;4.00;2.47;;;;;;;20.14;60.86;156541.25;4909775;29;20523;-83
2023/07/20 00:16:26;;;;;;;3.97;2.50;;;;;;;20.05;60.40;156517.75;4906549;29;20461;-82
2023/07/20 00:19:11;;;;;;;2.83;2.57;;;;;;;19.98;60.33;156499.50;4895051;29;20453;-82
2023/07/20 00:21:58;;;;;;;2.27;1.90;;;;;;;19.93;59.31;156487.78;4912477;29;20420;-83
2023/07/20 00:24:43;;;;;;;3.30;2.20;;;;;;;19.88;58.67;156473.44;4909573;29;20504;-82
2023/07/20 00:27:28;;;;;;;2.67;2.33;;;;;;;19.85;59.21;156466.94;4910866;29;20462;-82
2023/07/20 00:30:14;;;;;;;5.30;2.20;;;;;;;19.82;59.47;156459.09;4917162;29;20461;-82
2023/07/20 00:32:59;;;;;;;3.03;2.10;;;;;;;19.79;59.54;156449.94;4910011;29;21213;-82
2023/07/20 00:35:44;;;;;;;6.73;3.07;;;;;;;19.73;58.20;156434.28;4885852;29;20518;-82
2023/07/20 00:38:31;;;;;;;3.53;2.40;;;;;;;19.70;58.80;156426.47;4895456;29;20886;-82
2023/07/20 00:41:17;;;;;;;3.97;2.37;;;;;;;19.61;58.31;156404.34;4911403;29;20480;-82
2023/07/20 00:44:02;;;;;;;2.53;2.20;;;;;;;19.60;58.77;156400.41;4896800;29;20479;-81
2023/07/20 00:46:48;;;;;;;3.30;2.30;;;;;;;19.51;58.73;156378.28;4896325;29;20921;-82
2023/07/20 00:49:33;;;;;;;3.27;2.77;;;;;;;19.46;58.58;156365.19;4902413;29;20475;-81
2023/07/20 00:52:19;;;;;;;2.50;2.10;;;;;;;19.43;58.60;156357.41;4915419;29;20730;-81
2023/07/20 00:55:08;;;;;;;3.00;2.17;;;;;;;19.39;58.56;156348.28;4912108;29;20480;-81
2023/07/20 00:57:53;;;;;;;4.50;2.13;;;;;;;19.35;58.92;156336.50;4914063;29;20417;-81
2023/07/20 01:00:38;;;;;;;2.83;2.37;;;;;;;19.33;59.19;156331.25;4906566;29;20900;-81
2023/07/20 01:03:23;;;;;;;2.90;2.13;;;;;;;19.32;59.81;156328.69;4911218;29;20525;-80
2023/07/20 01:06:19;;;;;;;2.93;2.57;;;;;;;19.32;59.50;156330.00;4910141;29;20480;-80
2023/07/20 01:09:12;;;;;;;2.90;2.30;;;;;;;19.25;60.03;156310.41;4900850;29;20538;-81
2023/07/20 01:12:05;;;;;;;2.33;2.00;;;;;;;19.23;60.08;156306.53;4906492;29;20452;-81
2023/07/20 01:14:51;;;;;;;4.20;3.07;;;;;;;19.20;59.85;156297.38;4913842;29;20468;-80
2023/07/20 01:17:36;;;;;;;3.30;2.87;;;;;;;19.16;59.79;156288.28;4913227;29;20452;-81
2023/07/20 01:20:23;;;;;;;3.30;2.50;;;;;;;19.07;60.03;156264.81;4916134;29;20648;-81
2023/07/20 01:23:24;;;;;;;3.27;2.70;;;;;;;18.98;59.63;156240.06;4894005;29;20453;-81
2023/07/20 01:26:22;;;;;;;3.07;2.63;;;;;;;18.92;60.59;156225.72;4888259;29;20496;-81
2023/07/20 01:29:19;;;;;;;3.37;2.37;;;;;;;18.89;60.31;156217.91;4897088;29;20503;-81
2023/07/20 01:32:08;;;;;;;2.90;2.40;;;;;;;18.82;60.35;156200.94;4912767;29;20663;-81
2023/07/20 01:34:54;;;;;;;3.30;2.30;;;;;;;18.83;60.53;156202.25;4898362;29;20471;-81
2023/07/20 01:37:40;;;;;;;2.93;2.17;;;;;;;18.81;60.92;156197.06;4910425;29;21113;-80
2023/07/20 01:40:26;;;;;;;4.00;2.20;;;;;;;18.75;61.07;156181.41;4911890;29;20440;-80
2023/07/20 01:43:12;;;;;;;3.10;2.37;;;;;;;18.72;60.95;156173.59;4898614;29;20452;-81
2023/07/20 01:45:58;;;;;;;3.43;2.20;;;;;;;18.71;60.97;156172.31;4895306;29;20512;-80
2023/07/20 01:48:44;;;;;;;2.90;2.30;;;;;;;18.67;61.05;156160.56;4912765;29;20432;-81
2023/07/20 01:51:30;;;;;;;2.50;2.30;;;;;;;18.63;61.18;156150.16;4898138;29;20452;-81
2023/07/20 01:54:15;;;;;;;3.50;2.73;;;;;;;18.60;60.92;156143.66;4911671;29;20813;-82
2023/07/20 01:57:00;;;;;;;2.40;1.90;;;;;;;18.59;61.42;156139.72;4908193;29;20826;-82
2023/07/20 01:59:46;;;;;;;2.90;2.20;;;;;;;18.53;61.66;156125.38;4900048;29;20535;-82
2023/07/20 02:02:31;;;;;;;4.00;2.27;;;;;;;18.50;61.62;156117.59;4903343;29;20540;-82
2023/07/20 02:05:18;;;;;;;3.40;2.40;;;;;;;18.48;62.29;156111.09;4907651;29;20837;-82
2023/07/20 02:08:03;;;;;;;3.43;2.33;;;;;;;18.44;62.29;156101.91;4897066;29;20477;-81
2023/07/20 02:10:49;;;;;;;3.30;2.30;;;;;;;18.38;62.22;156086.28;4904867;29;20456;-81
2023/07/20 02:13:34;;;;;;;3.53;2.10;;;;;;;18.31;62.64;156068.06;4909705;29;20488;-81
2023/07/20 02:16:19;;;;;;;2.73;2.20;;;;;;;18.27;62.67;156058.91;4896002;29;20460;-81
2023/07/20 02:19:06;;;;;;;2.90;2.20;;;;;;;18.20;62.90;156040.69;4894701;29;20500;-81
2023/07/20 02:21:53;;;;;;;3.93;2.53;;;;;;;18.12;63.48;156019.88;4909449;29;21061;-81
2023/07/20 02:24:38;;;;;;;2.83;2.10;;;;;;;18.09;63.58;156012.03;4909344;29;20601;-81
2023/07/20 02:27:24;;;;;;;3.60;2.63;;;;;;;18.09;63.64;156012.03;4909185;29;21175;-82
2023/07/20 02:30:10;;;;;;;4.57;2.50;;;;;;;18.04;63.74;155999.03;4896965;29;20503;-81
2023/07/20 02:32:58;;;;;;;3.00;2.33;;;;;;;18.00;63.60;155988.59;4905374;29;20469;-81
2023/07/20 02:35:43;;;;;;;3.47;2.30;;;;;;;17.97;63.91;155980.81;4911114;29;20976;-82
2023/07/20 02:38:30;;;;;;;2.23;1.90;;;;;;;17.95;64.25;155975.56;4893384;29;20453;-82
2023/07/20 02:41:15;;;;;;;3.37;3.07;;;;;;;17.91;64.20;155965.16;4909798;29;20471;-81
2023/07/20 02:44:01;;;;;;;4.80;2.57;;;;;;;17.87;64.47;155954.72;4910466;29;20537;-81
2023/07/20 02:46:46;;;;;;;3.30;2.33;;;;;;;17.87;64.39;155953.47;4910134;29;20500;-81
2023/07/20 02:49:31;;;;;;;3.70;3.10;;;;;;;17.82;65.19;155941.72;4911361;29;20956;-81
2023/07/20 02:52:16;;;;;;;3.27;2.50;;;;;;;17.79;64.94;155933.91;4899234;29;20441;-81
2023/07/20 02:55:03;;;;;;;3.47;2.20;;;;;;;17.75;65.04;155923.50;4897241;29;20554;-81
2023/07/20 02:57:48;;;;;;;3.07;2.10;;;;;;;17.70;64.94;155910.50;4913694;29;20519;-81
2023/07/20 03:00:33;;;;;;;3.57;2.30;;;;;;;17.68;65.45;155905.28;4917198;29;20447;-81
2023/07/20 03:03:19;;;;;;;3.03;2.10;;;;;;;17.64;65.40;155894.84;4894355;29;20522;-81
2023/07/20 03:06:04;;;;;;;3.80;2.40;;;;;;;17.66;66.16;155898.78;4901503;29;20477;-81
2023/07/20 03:08:51;;;;;;;3.63;2.20;;;;;;;17.63;66.39;155893.53;4905249;29;20534;-81
2023/07/20 03:11:38;;;;;;;2.77;2.50;;;;;;;17.61;66.30;155887.03;4895889;29;20460;-81
2023/07/20 03:14:24;;;;;;;2.90;2.53;;;;;;;17.57;66.39;155877.97;4907881;29;20460;-81
2023/07/20 03:17:10;;;;;;;3.17;2.30;;;;;;;17.56;66.73;155875.34;4904607;29;20462;-81
2023/07/20 03:19:55;;;;;;;2.50;2.20;;;;;;;17.54;66.98;155870.16;4892816;29;20471;-81
2023/07/20 03:22:41;;;;;;;3.77;2.87;;;;;;;17.47;67.15;155851.84;4896344;29;20444;-81
2023/07/20 03:25:27;;;;;;;2.93;2.20;;;;;;;17.44;67.10;155842.75;4907786;29;20575;-81
2023/07/20 03:28:13;;;;;;;2.90;1.97;;;;;;;17.45;67.24;155845.34;4907891;29;20453;-81
2023/07/20 03:30:59;;;;;;;4.30;2.20;;;;;;;17.45;67.38;155845.34;4909555;29;20543;-81
2023/07/20 03:33:46;;;;;;;4.83;2.13;;;;;;;17.45;67.55;155846.63;4919725;29;20993;-81
2023/07/20 03:36:31;;;;;;;4.30;2.47;;;;;;;17.45;67.54;155845.34;4891250;29;20473;-81
2023/07/20 03:39:16;;;;;;;3.13;1.83;;;;;;;17.44;67.10;155842.75;4904252;29;20533;-81
2023/07/20 03:42:01;;;;;;;2.80;2.17;;;;;;;17.42;67.44;155837.56;4890759;29;20444;-81
2023/07/20 03:44:48;;;;;;;3.50;2.20;;;;;;;17.43;67.78;155841.44;4908698;29;20549;-81
2023/07/20 03:47:33;;;;;;;4.10;2.70;;;;;;;17.42;67.49;155837.56;4891317;29;21009;-81
2023/07/20 03:50:19;;;;;;;3.73;2.30;;;;;;;17.38;67.65;155827.13;4906053;29;20509;-80
2023/07/20 03:53:04;;;;;;;3.37;2.10;;;;;;;17.40;67.88;155832.31;4906471;29;20948;-81
2023/07/20 03:55:50;;;;;;;3.23;2.13;;;;;;;17.37;68.22;155824.50;4909879;29;20534;-80
2023/07/20 03:58:36;;;;;;;4.00;2.60;;;;;;;17.39;68.02;155831.06;4903331;29;20444;-80
2023/07/20 04:01:23;;;;;;;2.53;1.90;;;;;;;17.41;67.92;155836.25;4904947;29;20888;-80
2023/07/20 04:04:09;;;;;;;3.47;2.40;;;;;;;17.43;68.00;155840.13;4912055;29;20465;-80
2023/07/20 04:06:54;;;;;;;2.67;2.20;;;;;;;17.43;68.17;155841.44;4904326;29;20487;-80
2023/07/20 04:09:40;;;;;;;2.87;1.93;;;;;;;17.45;68.07;155845.34;4909907;29;20468;-80
2023/07/20 04:12:26;;;;;;;2.23;2.03;;;;;;;17.49;68.20;155857.09;4906052;29;20484;-80
2023/07/20 04:15:13;;;;;;;2.90;2.30;;;;;;;17.55;68.31;155871.47;4917512;29;20460;-80
2023/07/20 04:18:00;;;;;;;3.83;2.17;;;;;;;17.56;68.43;155875.34;4919849;29;20951;-84
2023/07/20 04:20:46;;;;;;;2.47;2.20;;;;;;;17.60;68.20;155884.47;4913006;29;20605;-83
2023/07/20 04:23:31;;;;;;;2.83;2.17;;;;;;;17.66;68.34;155898.78;4912692;29;20405;-83
2023/07/20 04:26:17;;;;;;;4.30;2.90;;;;;;;17.70;67.97;155910.50;4894319;29;20830;-83
2023/07/20 04:29:03;;;;;;;2.37;2.07;;;;;;;17.75;68.06;155923.50;4906055;29;20487;-83
2023/07/20 04:31:55;;;;;;;3.00;2.13;;;;;;;17.85;67.78;155949.53;4888325;29;20440;-83
2023/07/20 04:34:42;;;;;;;4.03;2.57;;;;;;;18.00;67.71;155987.31;4897024;29;20597;-84
2023/07/20 04:37:28;;;;;;;2.53;2.20;;;;;;;18.21;67.24;156043.28;4906639;29;20473;-84
2023/07/20 04:40:16;;;;;;;3.47;2.53;;;;;;;18.46;66.77;156105.81;4909994;29;20546;-84
2023/07/20 04:43:05;;;;;;;4.33;2.40;;;;;;;18.67;65.81;156160.56;4914812;29;21352;-83
2023/07/20 04:45:55;;;;;;;2.90;2.30;;;;;;;18.88;65.16;156214.03;4916052;29;20531;-83
2023/07/20 04:48:41;;;;;;;6.03;2.80;;;;;;;19.14;64.62;156281.78;4907461;29;20817;-83
2023/07/20 04:51:30;;;;;;;2.40;1.87;;;;;;;19.38;63.51;156345.66;4914260;29;20968;-85
2023/07/20 04:54:17;;;;;;;3.20;1.90;;;;;;;19.57;63.00;156392.56;4902893;29;20436;-83
2023/07/20 04:57:02;;;;;;;5.07;2.67;;;;;;;19.72;62.14;156431.72;4912790;29;20566;-84
2023/07/20 04:59:48;;;;;;;2.30;1.70;;;;;;;19.79;62.16;156449.94;4899922;29;21055;-84
2023/07/20 05:02:36;;;;;;;3.07;2.50;;;;;;;19.72;62.09;156433.03;4909575;29;21036;-84
2023/07/20 05:05:21;;;;;;;3.10;2.17;;;;;;;19.65;62.36;156414.75;4912491;29;20455;-82
2023/07/20 05:08:08;;;;;;;3.40;2.23;;;;;;;19.63;62.78;156408.22;4908120;29;20495;-84
2023/07/20 05:10:54;;;;;;;5.93;2.50;;;;;;;19.69;62.49;156423.88;4920292;29;20455;-84
2023/07/20 05:13:42;;;;;;;4.10;2.40;;;;;;;19.75;63.19;156439.56;4904437;29;20447;-84
2023/07/20 05:16:28;;;;;;;3.30;2.37;;;;;;;19.85;62.17;156465.63;4904049;29;20968;-84
2023/07/20 05:19:16;;;;;;;2.27;2.00;;;;;;;19.99;62.07;156503.41;4911945;29;20797;-84
2023/07/20 05:22:01;;;;;;;3.20;2.43;;;;;;;20.21;61.96;156558.19;4910888;29;20579;-84
2023/07/20 05:24:51;;;;;;;3.50;2.50;;;;;;;20.34;60.73;156593.44;4913206;29;20616;-84
2023/07/20 05:27:40;;;;;;;2.60;2.33;;;;;;;20.38;61.11;156603.91;4918139;29;20464;-84
2023/07/20 05:30:26;;;;;;;3.30;2.10;;;;;;;20.36;61.08;156598.66;4918890;29;20995;-85
2023/07/20 05:33:14;;;;;;;2.90;2.20;;;;;;;20.37;61.46;156599.97;4918759;29;21041;-84
2023/07/20 05:35:59;;;;;;;4.23;1.90;;;;;;;20.45;61.47;156622.16;4918477;29;20451;-84
2023/07/20 05:38:45;;;;;;;3.33;2.10;;;;;;;20.62;61.24;156666.47;4919898;29;20435;-84
2023/07/20 05:41:31;;;;;;;3.00;2.37;;;;;;;20.71;60.19;156687.34;4918327;29;20963;-84
2023/07/20 05:44:17;;;;;;;6.00;2.30;;;;;;;20.75;60.26;156697.81;4919843;29;20480;-84
2023/07/20 05:47:03;;;;;;;3.00;2.40;;;;;;;20.73;60.05;156692.63;4923018;29;20472;-84
2023/07/20 05:49:50;;;;;;;2.43;2.10;;;;;;;20.68;60.21;156679.56;4920559;29;21086;-81
2023/07/20 05:52:35;;;;;;;5.47;3.07;;;;;;;20.62;60.39;156666.47;4915809;29;20552;-81
2023/07/20 05:55:21;;;;;;;2.70;2.30;;;;;;;20.56;61.08;156650.84;4920107;29;20459;-81
2023/07/20 05:58:08;;;;;;;2.93;2.00;;;;;;;20.56;61.04;156650.84;4910100;29;20684;-81
2023/07/20 06:00:54;;;;;;;2.70;2.20;;;;;;;20.56;60.81;156650.84;4907846;29;21008;-81
2023/07/20 06:03:39;;;;;;;3.20;2.53;;;;;;;20.49;60.97;156632.56;4920332;29;20455;-81
2023/07/20 06:06:25;;;;;;;2.63;2.20;;;;;;;20.47;61.21;156627.34;4919740;29;20555;-81
2023/07/20 06:09:11;;;;;;;2.50;2.07;;;;;;;20.49;61.90;156631.28;4914726;29;20451;-81
2023/07/20 06:11:57;;;;;;;3.93;2.43;;;;;;;20.43;61.18;156615.63;4904246;29;20500;-81
2023/07/20 06:14:44;;;;;;;3.27;2.00;;;;;;;20.45;62.02;156622.16;4919654;29;20459;-81
2023/07/20 06:17:29;;;;;;;3.20;2.20;;;;;;;20.47;62.00;156626.03;4914519;29;20956;-81
2023/07/20 06:20:14;;;;;;;5.17;2.30;;;;;;;20.47;61.31;156627.34;4912813;29;20476;-81
2023/07/20 06:23:00;;;;;;;4.23;2.60;;;;;;;20.45;61.35;156620.84;4916952;29;20451;-82
2023/07/20 06:25:46;;;;;;;3.20;2.47;;;;;;;20.44;61.86;156619.53;4919386;29;20455;-81
2023/07/20 06:28:34;;;;;;;2.90;2.23;;;;;;;20.45;62.46;156620.84;4903642;29;21023;-81
2023/07/20 06:31:21;;;;;;;2.87;2.37;;;;;;;20.47;61.98;156627.34;4901500;29;20465;-81
2023/07/20 06:34:06;;;;;;;3.50;2.20;;;;;;;20.50;61.81;156635.19;4902968;29;20468;-80
2023/07/20 06:36:52;;;;;;;3.00;2.27;;;;;;;20.56;62.42;156650.84;4888016;29;20964;-81
2023/07/20 06:39:37;;;;;;;2.80;2.23;;;;;;;20.61;62.27;156663.91;4913031;29;20797;-80
2023/07/20 06:42:22;;;;;;;4.03;1.97;;;;;;;20.68;61.92;156679.56;4916608;29;20453;-81
2023/07/20 06:45:08;;;;;;;3.03;2.10;;;;;;;20.78;62.49;156706.97;4917407;29;20469;-81
2023/07/20 06:47:55;;;;;;;2.40;2.07;;;;;;;20.90;61.99;156736.94;4895946;29;20469;-81
2023/07/20 06:50:40;;;;;;;3.30;2.20;;;;;;;21.06;61.25;156780.06;4915493;29;20511;-81
2023/07/20 06:53:25;;;;;;;3.13;2.43;;;;;;;21.31;59.89;156842.72;4916352;29;20555;-82
2023/07/20 06:56:11;;;;;;;2.70;2.00;;;;;;;21.59;59.39;156915.81;4914673;29;20468;-81
2023/07/20 06:58:58;;;;;;;3.70;2.23;;;;;;;21.90;59.21;156995.47;4913453;29;20449;-81
2023/07/20 07:01:44;;;;;;;6.13;2.00;;;;;;;22.10;57.86;157047.72;4912787;29;20602;-81
2023/07/20 07:04:37;;;;;;;4.93;2.40;;;;;;;22.21;57.99;157076.47;4914088;29;20443;-81
2023/07/20 07:07:22;;;;;;;3.93;2.20;;;;;;;22.43;57.71;157133.91;4917278;29;20475;-82
2023/07/20 07:10:08;;;;;;;3.37;2.30;;;;;;;22.64;57.06;157187.50;4918940;29;20464;-82
2023/07/20 07:12:53;;;;;;;3.30;2.17;;;;;;;22.78;56.08;157225.41;4914930;29;20520;-83
2023/07/20 07:15:39;;;;;;;3.53;2.20;;;;;;;22.72;55.11;157208.41;4915498;29;20970;-83
2023/07/20 07:18:24;;;;;;;5.03;2.30;;;;;;;22.79;56.15;157226.75;4915323;29;20468;-82
2023/07/20 07:21:11;;;;;;;4.07;2.40;;;;;;;22.90;55.73;157255.50;4915029;29;20455;-82
2023/07/20 07:23:59;;;;;;;2.73;2.43;;;;;;;23.17;55.27;157324.69;4914938;29;20463;-82
2023/07/20 07:26:44;;;;;;;4.13;2.17;;;;;;;23.47;54.28;157403.19;4915367;29;20621;-82
2023/07/20 07:29:29;;;;;;;3.57;2.27;;;;;;;23.78;53.14;157484.22;4900900;29;20453;-82
2023/07/20 07:32:16;;;;;;;3.57;2.27;;;;;;;23.99;52.61;157539.13;4906147;29;20855;-82
2023/07/20 07:35:01;;;;;;;3.00;2.23;;;;;;;24.29;51.59;157615.03;4917380;29;20459;-82
2023/07/20 07:37:50;;;;;;;2.37;2.10;;;;;;;24.54;51.93;157681.72;4915730;29;20479;-82
2023/07/20 07:40:39;;;;;;;2.90;1.90;;;;;;;24.75;50.28;157736.66;4910438;29;20464;-82
2023/07/20 07:43:24;;;;;;;5.70;2.90;;;;;;;24.91;49.65;157777.31;4913127;29;20807;-82
2023/07/20 07:46:09;;;;;;;4.90;2.30;;;;;;;25.17;49.78;157845.34;4915376;29;20512;-82
2023/07/20 07:48:55;;;;;;;3.50;2.40;;;;;;;25.55;47.71;157942.25;4900828;29;21027;-82
2023/07/20 07:51:40;;;;;;;4.13;2.80;;;;;;;25.65;48.18;157968.44;4889813;29;20452;-82
2023/07/20 07:54:27;;;;;;;5.90;2.73;;;;;;;25.81;47.46;158010.31;4912942;29;20440;-82
2023/07/20 07:57:13;;;;;;;3.40;2.47;;;;;;;25.85;46.30;158020.78;4912900;29;20439;-81
2023/07/20 07:59:59;;;;;;;3.33;2.70;;;;;;;25.93;46.01;158041.72;4913746;29;20800;-81
2023/07/20 08:02:46;;;;;;;5.13;2.90;;;;;;;25.99;46.56;158058.75;4913241;29;20959;-81
2023/07/20 08:05:31;;;;;;;6.30;2.80;;;;;;;26.18;46.02;158105.94;4915907;29;21223;-82
2023/07/20 08:08:16;;;;;;;3.43;2.33;;;;;;;26.31;45.54;158139.97;4911857;29;20500;-81
2023/07/20 08:11:03;;;;;;;3.57;2.37;;;;;;;26.43;44.78;158172.72;4914564;29;20893;-81
2023/07/20 08:13:48;;;;;;;3.07;2.33;;;;;;;26.39;44.20;158160.94;4913262;29;20455;-81
2023/07/20 08:16:33;;;;;;;3.20;2.30;;;;;;;26.36;43.46;158153.06;4914635;29;20480;-81
2023/07/20 08:19:19;;;;;;;3.60;2.47;;;;;;;26.29;44.45;158136.03;4911034;29;20459;-81
2023/07/20 08:22:09;;;;;;;3.27;2.43;;;;;;;26.40;44.73;158163.53;4914714;29;20448;-82
2023/07/20 08:24:55;;;;;;;2.90;2.40;;;;;;;26.30;44.48;158138.66;4914819;29;20502;-81
2023/07/20 08:27:42;;;;;;;2.43;2.23;;;;;;;26.16;44.68;158101.97;4913796;29;20641;-79
2023/07/20 08:30:27;;;;;;;4.23;2.50;;;;;;;26.21;43.73;158113.81;4902169;29;25157;-81
2023/07/20 08:33:19;;;;;;;4.33;2.60;;;;;;;26.21;44.16;158113.81;4896991;29;20467;-81
2023/07/20 08:36:05;;;;;;;3.87;2.37;;;;;;;26.15;43.97;158099.41;4917482;29;20511;-81
2023/07/20 08:38:53;;;;;;;5.10;2.53;;;;;;;26.11;44.29;158088.84;4910683;29;20453;-82
2023/07/20 08:41:39;;;;;;;3.20;2.53;;;;;;;26.22;44.24;158117.72;4915545;29;21113;-80
2023/07/20 08:44:25;;;;;;;2.70;2.50;;;;;;;26.21;43.87;158113.81;4917429;29;20836;-82
2023/07/20 08:47:11;;;;;;;3.27;1.97;;;;;;;26.27;41.79;158130.81;4918605;29;20584;-81
2023/07/20 08:49:57;;;;;;;2.30;1.90;;;;;;;26.25;42.61;158125.56;4918724;29;20448;-81
2023/07/20 08:52:42;;;;;;;4.70;2.40;;;;;;;26.31;42.20;158139.97;4895132;29;20511;-79
2023/07/20 08:55:41;;;;;;;3.20;2.10;;;;;;;26.33;42.88;158146.53;4917306;29;20800;-81
2023/07/20 08:58:27;;;;;;;3.70;2.50;;;;;;;26.18;42.45;158107.25;4917163;29;20617;-81
2023/07/20 09:01:17;;;;;;;3.80;2.50;;;;;;;25.96;42.82;158050.91;4917385;29;20448;-81
2023/07/20 09:04:03;;;;;;;3.70;2.30;;;;;;;25.83;43.76;158015.53;4913187;29;20809;-81
2023/07/20 09:06:49;;;;;;;3.87;2.50;;;;;;;25.98;43.35;158056.13;4916754;29;20652;-81
2023/07/20 09:09:40;;;;;;;2.20;2.00;;;;;;;26.16;44.06;158101.97;4918941;29;22055;-80
2023/07/20 09:12:26;;;;;;;5.67;2.00;;;;;;;26.43;42.07;158172.72;4918411;29;20469;-80
2023/07/20 09:15:22;;;;;;;2.20;2.00;;;;;;;26.44;41.05;158175.34;4921671;29;20439;-81
2023/07/20 09:18:10;;;;;;;3.23;1.90;;;;;;;26.42;41.83;158170.06;4904203;29;20460;-80
2023/07/20 09:21:00;;;;;;;2.13;1.93;;;;;;;26.51;40.16;158193.66;4913003;29;20472;-80
2023/07/20 09:23:46;;;;;;;2.57;2.10;;;;;;;26.60;40.87;158217.25;4918371;29;20577;-80
2023/07/20 09:26:31;;;;;;;3.00;2.20;;;;;;;26.65;39.34;158229.03;4919855;29;20867;-80
2023/07/20 09:29:19;;;;;;;3.07;2.20;;;;;;;26.68;41.81;158235.59;4916914;29;20522;-80
2023/07/20 09:32:05;;;;;;;3.47;2.40;;;;;;;26.88;40.29;158289.34;4920639;29;20452;-80
2023/07/20 09:34:52;;;;;;;3.90;2.40;;;;;;;26.91;39.88;158297.19;4920232;29;20456;-81
2023/07/20 09:37:37;;;;;;;2.10;1.70;;;;;;;26.93;39.52;158301.09;4917334;29;20487;-80
2023/07/20 09:40:23;;;;;;;2.73;2.40;;;;;;;27.08;39.75;158340.44;4916083;29;20856;-80
2023/07/20 09:43:09;;;;;;;3.00;2.07;;;;;;;27.12;39.23;158350.91;4919799;29;20943;-80
2023/07/20 09:45:58;;;;;;;2.43;1.97;;;;;;;26.93;39.46;158302.44;4918475;29;20593;-80
2023/07/20 09:48:53;;;;;;;2.50;2.30;;;;;;;26.84;40.18;158277.56;4919054;29;20994;-80
2023/07/20 09:51:41;;;;;;;2.77;2.30;;;;;;;26.74;40.29;158251.31;4919961;29;20997;-80
2023/07/20 09:54:28;;;;;;;2.70;2.47;;;;;;;26.65;40.80;158227.72;4917467;29;20453;-80
2023/07/20 09:57:14;;;;;;;2.20;1.90;;;;;;;26.59;40.61;158213.31;4917846;29;20464;-80
2023/07/20 09:59:59;;;;;;;2.50;2.20;;;;;;;26.41;41.36;158166.16;4912738;29;20482;-80
2023/07/20 10:02:46;;;;;;;2.77;2.30;;;;;;;26.47;41.48;158181.91;4918519;29;20451;-80
2023/07/20 10:05:33;;;;;;;2.87;2.23;;;;;;;26.72;41.25;158247.34;4913602;29;20447;-80
2023/07/20 10:08:21;;;;;;;2.67;2.40;;;;;;;26.79;40.10;158264.47;4919439;29;21093;-80
2023/07/20 10:11:08;;;;;;;3.40;2.13;;;;;;;26.77;39.20;158259.19;4916995;29;20524;-80
2023/07/20 10:13:55;;;;;;;3.43;2.30;;;;;;;26.74;39.27;158251.31;4918445;29;20452;-80
2023/07/20 10:16:48;;;;;;;2.50;1.80;;;;;;;26.89;40.16;158290.66;4913494;29;20467;-80
2023/07/20 10:19:38;;;;;;;2.40;2.20;;;;;;;27.07;38.93;158337.81;4917902;29;20443;-80
2023/07/20 10:22:26;;;;;;;2.70;2.33;;;;;;;27.05;39.88;158332.56;4920405;29;21341;-80
2023/07/20 10:25:13;;;;;;;2.87;2.40;;;;;;;27.09;40.23;158343.03;4917147;29;20889;-80
2023/07/20 10:27:59;;;;;;;3.23;2.43;;;;;;;27.13;38.24;158354.88;4919768;29;20479;-80
2023/07/20 10:30:45;;;;;;;1.70;1.50;;;;;;;27.09;38.55;158344.34;4917030;29;20448;-80
2023/07/20 10:33:31;;;;;;;2.60;1.80;;;;;;;27.00;38.71;158320.81;4917720;29;20457;-80
2023/07/20 10:36:16;;;;;;;2.70;2.10;;;;;;;27.04;38.16;158331.25;4912503;29;20824;-81
2023/07/20 10:39:02;;;;;;;2.50;1.83;;;;;;;27.10;39.23;158345.69;4917872;29;20923;-80
2023/07/20 10:41:49;;;;;;;1.97;1.77;;;;;;;27.21;38.06;158374.50;4917606;29;20956;-80
2023/07/20 10:44:34;;;;;;;3.80;2.23;;;;;;;27.07;38.17;158339.13;4916753;29;20445;-80
2023/07/20 10:47:19;;;;;;;2.83;1.80;;;;;;;27.12;37.86;158352.22;4919157;29;21040;-80
2023/07/20 10:50:07;;;;;;;2.13;1.93;;;;;;;27.13;37.50;158353.53;4918989;29;20968;-80
2023/07/20 10:53:05;;;;;;;1.90;1.63;;;;;;;27.10;38.63;158347.00;4916311;29;20483;-80
2023/07/20 10:56:07;;;;;;;2.00;1.60;;;;;;;27.10;38.29;158347.00;4917806;29;20807;-81
2023/07/20 10:58:59;;;;;;;7.10;1.73;;;;;;;27.12;37.45;158350.91;4917414;29;20584;-81
2023/07/20 11:01:45;;;;;;;2.43;1.97;;;;;;;26.97;37.51;158311.63;4916847;29;20499;-81
2023/07/20 11:04:39;;;;;;;1.60;1.50;;;;;;;26.76;37.10;158257.88;4921800;29;20456;-80
2023/07/20 11:07:38;;;;;;;2.30;1.90;;;;;;;26.71;38.30;158244.78;4915451;29;20488;-80
2023/07/20 11:10:23;;;;;;;2.80;2.20;;;;;;;26.91;37.50;158297.19;4916474;29;20974;-80
2023/07/20 11:13:19;;;;;;;2.10;1.77;;;;;;;26.91;36.22;158295.88;4917865;29;20484;-80
2023/07/20 11:16:06;;;;;;;2.53;1.80;;;;;;;26.45;36.43;158176.66;4915839;29;20472;-80
2023/07/20 11:18:52;;;;;;;1.97;1.77;;;;;;;26.11;37.67;158088.84;4917971;29;20541;-80
2023/07/20 11:21:39;;;;;;;4.80;1.47;;;;;;;26.32;37.19;158142.56;4918400;29;20456;-80
2023/07/20 11:24:25;;;;;;;2.00;1.80;;;;;;;26.30;36.67;158138.66;4916255;29;20589;-79
2023/07/20 11:27:10;;;;;;;2.03;1.50;;;;;;;26.24;36.95;158122.94;4919462;29;20460;-79
2023/07/20 11:29:55;;;;;;;1.40;1.27;;;;;;;26.04;36.68;158070.53;4901075;29;20443;-79
2023/07/20 11:32:48;;;;;;;2.00;1.67;;;;;;;26.03;36.59;158067.88;4918189;29;20994;-80
2023/07/20 11:35:36;;;;;;;2.10;1.40;;;;;;;26.19;36.18;158109.84;4916932;29;20911;-80
2023/07/20 11:38:21;;;;;;;2.67;1.63;;;;;;;26.42;37.47;158168.81;4916384;29;20460;-80
2023/07/20 11:41:06;;;;;;;2.37;1.63;;;;;;;26.80;36.20;158267.06;4914902;29;20581;-79
2023/07/20 11:43:52;;;;;;;2.13;1.60;;;;;;;26.95;35.11;158307.66;4913424;29;20446;-80
2023/07/20 11:46:37;;;;;;;3.60;1.60;;;;;;;27.04;35.91;158331.25;4912782;29;20569;-79
2023/07/20 11:49:24;;;;;;;3.67;1.60;;;;;;;26.95;36.55;158306.38;4892241;29;20831;-78
2023/07/20 11:52:11;;;;;;;3.30;1.63;;;;;;;26.89;35.05;158290.66;4917519;29;20947;-77
2023/07/20 11:54:56;;;;;;;2.50;1.60;;;;;;;27.00;36.27;158319.47;4914358;29;20826;-77
2023/07/20 11:57:41;;;;;;;1.60;1.50;;;;;;;27.08;35.20;158341.75;4886562;29;20464;-77
2023/07/20 12:00:27;;;;;;;1.90;1.47;;;;;;;26.96;34.23;158308.97;4915279;29;20447;-77
2023/07/20 12:03:13;;;;;;;2.10;1.70;;;;;;;26.77;36.32;158259.19;4914896;29;20516;-78
2023/07/20 12:06:07;;;;;;;2.83;1.73;;;;;;;26.94;35.38;158305.06;4906636;29;21056;-77
2023/07/20 12:08:56;;;;;;;3.40;2.03;;;;;;;26.81;34.97;158269.69;4911261;29;21024;-78
2023/07/20 12:11:41;;;;;;;4.20;2.13;;;;;;;26.55;35.81;158204.19;4911951;29;20511;-77
2023/07/20 12:14:26;;;;;;;1.63;1.30;;;;;;;26.35;34.89;158151.75;4912512;29;21012;-77
2023/07/20 12:17:11;;;;;;;1.93;1.50;;;;;;;26.07;35.30;158077.06;4903774;29;20455;-78
2023/07/20 12:19:58;;;;;;;1.80;1.50;;;;;;;26.16;36.62;158101.97;4919381;29;20983;-77
2023/07/20 12:22:45;;;;;;;2.57;1.80;;;;;;;26.36;35.17;158154.41;4904957;29;20865;-77
2023/07/20 12:25:37;;;;;;;3.63;1.80;;;;;;;26.49;35.14;158188.44;4911003;29;20455;-77
2023/07/20 12:28:22;;;;;;;1.90;1.50;;;;;;;26.61;35.92;158219.84;4917108;29;20591;-77
2023/07/20 12:31:08;;;;;;;1.73;1.63;;;;;;;26.79;34.17;158264.47;4915171;29;20443;-77
2023/07/20 12:33:55;;;;;;;1.90;1.40;;;;;;;26.72;34.06;158246.03;4917689;29;20835;-78
2023/07/20 12:36:40;;;;;;;1.80;1.40;;;;;;;26.49;33.60;158188.44;4915870;29;20452;-77
2023/07/20 12:39:26;;;;;;;1.83;1.50;;;;;;;26.06;33.81;158075.75;4917297;29;22251;-77
2023/07/20 12:42:12;;;;;;;1.90;1.70;;;;;;;25.53;34.49;157938.31;4911130;29;20481;-78
2023/07/20 12:44:57;;;;;;;2.80;1.60;;;;;;;25.52;34.91;157934.41;4914863;29;20798;-78
2023/07/20 12:47:43;;;;;;;1.60;1.27;;;;;;;25.52;35.17;157935.72;4918787;29;20656;-78
2023/07/20 12:50:28;;;;;;;1.80;1.40;;;;;;;25.48;35.45;157923.91;4914255;29;20451;-78
2023/07/20 12:53:14;;;;;;;4.43;1.40;;;;;;;25.71;36.27;157984.09;4909320;29;20459;-78
2023/07/20 12:56:00;;;;;;;2.40;1.23;;;;;;;25.52;36.16;157935.72;4915173;29;20472;-78